createdAt,value
2019-01-31T00:00:42.096Z,34.60
2019-01-31T00:03:16.293Z,39.67
2019-01-31T00:06:02.974Z,41.60
2019-01-31T00:08:45.625Z,45.90
2019-01-31T00:11:16.244Z,49.48
2019-01-31T00:14:02.709Z,49.25
2019-01-31T00:16:55.568Z,46.18
2019-01-31T00:19:32.883Z,46.33
2019-01-31T00:22:27.054Z,54.83
2019-01-31T00:25:10.690Z,52.93
2019-01-31T00:27:42.209Z,45.63
2019-01-31T00:30:19.944Z,51.23
2019-01-31T00:32:54.686Z,51.00
2019-01-31T00:35:29.334Z,54.57
2019-01-31T00:38:19.116Z,52.43
2019-01-31T00:40:59.020Z,52.17
2019-01-31T00:43:42.921Z,48.77
2019-01-31T00:46:23.139Z,49.37
2019-01-31T00:49:28.229Z,48.30
2019-01-31T00:52:24.178Z,48.50
2019-01-31T00:55:01.508Z,53.45
2019-01-31T00:57:57.606Z,71.57
2019-01-31T01:00:45.645Z,45.30
2019-01-31T01:03:43.004Z,48.90
2019-01-31T01:06:26.374Z,44.90
2019-01-31T01:09:09.244Z,46.80
2019-01-31T01:11:59.035Z,55.97
2019-01-31T01:14:42.033Z,43.97
2019-01-31T01:17:13.835Z,47.07
2019-01-31T01:19:54.105Z,43.57
2019-01-31T01:22:40.385Z,49.75
2019-01-31T01:25:30.097Z,42.83
2019-01-31T01:28:16.892Z,48.67
2019-01-31T01:31:09.379Z,41.90
2019-01-31T01:34:07.933Z,43.30
2019-01-31T01:36:42.270Z,47.90
2019-01-31T01:39:19.258Z,53.23
2019-01-31T01:41:49.885Z,50.00
2019-01-31T01:44:30.675Z,51.97
2019-01-31T01:47:26.072Z,45.20
2019-01-31T01:50:00.416Z,50.20
2019-01-31T01:52:44.058Z,55.97
2019-01-31T01:55:27.541Z,49.57
2019-01-31T01:58:23.378Z,48.70
2019-01-31T02:01:11.231Z,49.97
2019-01-31T02:03:54.499Z,43.10
2019-01-31T02:06:41.221Z,54.70
2019-01-31T02:09:15.836Z,50.50
2019-01-31T02:11:55.969Z,54.27
2019-01-31T02:14:45.656Z,49.03
2019-01-31T02:17:26.173Z,51.20
2019-01-31T02:20:03.299Z,57.97
2019-01-31T02:22:40.590Z,51.80
2019-01-31T02:25:15.155Z,45.97
2019-01-31T02:27:49.271Z,52.83
2019-01-31T02:30:29.061Z,59.57
2019-01-31T02:33:21.736Z,50.70
2019-01-31T02:35:59.245Z,44.57
2019-01-31T02:38:50.261Z,48.97
2019-01-31T02:41:31.030Z,42.27
2019-01-31T02:44:14.220Z,50.83
2019-01-31T02:46:54.483Z,51.70
2019-01-31T02:49:42.807Z,52.45
2019-01-31T02:52:30.586Z,48.50
2019-01-31T02:55:04.936Z,48.57
2019-01-31T02:57:42.022Z,45.20
2019-01-31T03:00:42.165Z,44.17
2019-01-31T03:03:19.477Z,45.80
2019-01-31T03:06:19.679Z,47.30
2019-01-31T03:09:20.126Z,47.40
2019-01-31T03:12:09.561Z,41.00
2019-01-31T03:14:39.571Z,44.30
2019-01-31T03:17:27.997Z,50.30
2019-01-31T03:20:02.662Z,45.97
2019-01-31T03:22:50.895Z,42.20
2019-01-31T03:25:25.349Z,42.33
2019-01-31T03:28:03.066Z,44.20
2019-01-31T03:30:43.484Z,44.07
2019-01-31T03:33:29.998Z,41.37
2019-01-31T03:36:01.616Z,47.27
2019-01-31T03:38:35.869Z,44.30
2019-01-31T03:41:18.807Z,45.13
2019-01-31T03:43:55.919Z,45.30
2019-01-31T03:46:45.437Z,48.93
2019-01-31T03:49:33.560Z,44.13
2019-01-31T03:52:08.024Z,49.90
2019-01-31T03:54:42.236Z,52.13
2019-01-31T03:57:16.969Z,55.63
2019-01-31T03:59:47.317Z,47.20
2019-01-31T04:02:21.550Z,53.80
2019-01-31T04:04:55.677Z,46.80
2019-01-31T04:07:24.028Z,51.60
2019-01-31T04:09:52.362Z,52.23
2019-01-31T04:12:20.684Z,53.40
2019-01-31T04:14:49.142Z,47.93
2019-01-31T04:17:17.488Z,46.03
2019-01-31T04:19:45.850Z,43.50
2019-01-31T04:22:14.412Z,47.10
2019-01-31T04:24:42.772Z,41.13
2019-01-31T04:27:11.140Z,46.73
2019-01-31T04:29:39.558Z,50.37
2019-01-31T04:32:07.873Z,47.13
2019-01-31T04:34:36.206Z,47.60
2019-01-31T04:37:04.533Z,42.73
2019-01-31T04:39:32.870Z,45.37
2019-01-31T04:42:01.183Z,46.00
2019-01-31T04:44:29.527Z,46.67
2019-01-31T04:46:57.812Z,45.80
2019-01-31T04:49:26.128Z,41.90
2019-01-31T04:51:54.400Z,42.33
2019-01-31T04:54:22.805Z,42.50
2019-01-31T04:56:51.078Z,39.00
2019-01-31T04:59:19.339Z,38.90
2019-01-31T05:01:47.782Z,47.50
2019-01-31T05:04:16.120Z,48.60
2019-01-31T05:06:44.494Z,48.27
2019-01-31T05:09:13.535Z,39.63
2019-01-31T05:11:41.852Z,49.08
2019-01-31T05:14:10.218Z,42.50
2019-01-31T05:16:38.557Z,47.27
2019-01-31T05:19:06.822Z,52.43
2019-01-31T05:21:35.115Z,49.87
2019-01-31T05:24:03.460Z,43.83
2019-01-31T05:26:31.768Z,43.33
2019-01-31T05:29:00.055Z,47.23
2019-01-31T05:31:28.473Z,42.10
2019-01-31T05:33:56.737Z,48.90
2019-01-31T05:36:25.028Z,43.57
2019-01-31T05:38:53.340Z,43.90
2019-01-31T05:41:21.673Z,51.60
2019-01-31T05:43:50.059Z,63.13
2019-01-31T05:46:18.490Z,47.80
2019-01-31T05:48:46.854Z,56.20
2019-01-31T05:51:15.165Z,46.67
2019-01-31T05:53:43.536Z,53.63
2019-01-31T05:56:11.840Z,51.97
2019-01-31T05:58:40.202Z,51.13
2019-01-31T06:01:08.689Z,43.70
2019-01-31T06:03:36.966Z,45.30
2019-01-31T06:06:05.268Z,55.67
2019-01-31T06:08:33.584Z,45.77
2019-01-31T06:11:07.467Z,42.33
2019-01-31T06:13:31.924Z,45.50
2019-01-31T06:16:00.225Z,40.30
2019-01-31T06:18:28.584Z,41.77
2019-01-31T06:20:56.934Z,42.20
2019-01-31T06:23:25.186Z,38.90
2019-01-31T06:25:53.478Z,36.87
2019-01-31T06:28:21.817Z,35.30
2019-01-31T06:30:50.260Z,36.90
2019-01-31T06:33:18.520Z,32.27
2019-01-31T06:35:46.824Z,32.37
2019-01-31T06:38:15.159Z,31.43
2019-01-31T06:40:44.031Z,33.73
2019-01-31T06:43:12.309Z,32.77
2019-01-31T06:45:40.617Z,28.93
2019-01-31T06:48:08.903Z,30.03
2019-01-31T06:50:37.173Z,31.67
2019-01-31T06:53:05.473Z,36.47
2019-01-31T06:55:33.760Z,32.53
2019-01-31T06:58:02.091Z,31.93
2019-01-31T07:00:30.388Z,32.30
2019-01-31T07:02:58.741Z,32.97
2019-01-31T07:05:27.072Z,32.13
2019-01-31T07:07:55.363Z,41.25
2019-01-31T07:10:25.568Z,31.10
2019-01-31T07:12:54.038Z,33.80
2019-01-31T07:15:22.304Z,28.70
2019-01-31T07:17:50.589Z,35.30
2019-01-31T07:20:18.960Z,28.30
2019-01-31T07:22:47.321Z,28.57
2019-01-31T07:25:23.860Z,30.33
2019-01-31T07:27:52.199Z,27.97
2019-01-31T07:30:21.988Z,25.87
2019-01-31T07:32:50.322Z,30.43
2019-01-31T07:35:18.641Z,28.53
2019-01-31T07:37:47.012Z,27.33
2019-01-31T07:40:17.988Z,30.70
2019-01-31T07:42:46.335Z,36.07
2019-01-31T07:45:20.417Z,31.20
2019-01-31T07:47:48.800Z,32.33
2019-01-31T07:50:19.601Z,28.23
2019-01-31T07:52:48.041Z,32.73
2019-01-31T07:55:16.409Z,28.40
2019-01-31T07:57:45.166Z,27.70
2019-01-31T08:00:24.897Z,28.40
2019-01-31T08:02:53.297Z,30.87
2019-01-31T08:05:25.358Z,28.77
2019-01-31T08:07:56.118Z,25.70
2019-01-31T08:10:33.531Z,27.07
2019-01-31T08:13:01.880Z,27.50
2019-01-31T08:15:30.278Z,30.27
2019-01-31T08:17:58.582Z,29.87
2019-01-31T08:20:26.868Z,29.43
2019-01-31T08:23:00.090Z,30.87
2019-01-31T08:25:26.973Z,45.97
2019-01-31T08:27:56.213Z,33.30
2019-01-31T08:30:26.949Z,28.50
2019-01-31T08:32:55.919Z,25.10
2019-01-31T08:35:24.201Z,29.80
2019-01-31T08:37:52.604Z,30.67
2019-01-31T08:40:20.949Z,28.17
2019-01-31T08:42:50.139Z,25.87
2019-01-31T08:45:18.537Z,27.27
2019-01-31T08:47:46.800Z,28.97
2019-01-31T08:50:20.837Z,40.53
2019-01-31T08:52:49.132Z,34.00
2019-01-31T08:55:17.424Z,42.73
2019-01-31T08:57:47.623Z,38.13
2019-01-31T09:00:22.398Z,38.07
2019-01-31T09:02:50.796Z,35.83
2019-01-31T09:05:19.084Z,32.83
2019-01-31T09:07:47.572Z,38.67
2019-01-31T09:10:18.682Z,42.07
2019-01-31T09:12:47.026Z,48.10
2019-01-31T09:15:18.327Z,46.97
2019-01-31T09:17:47.390Z,57.23
2019-01-31T09:20:21.642Z,40.33
2019-01-31T09:23:11.356Z,45.67
2019-01-31T09:25:57.770Z,47.50
2019-01-31T09:28:46.039Z,58.70
2019-01-31T09:31:37.151Z,51.57
2019-01-31T09:34:14.532Z,50.70
2019-01-31T09:36:48.511Z,55.63
2019-01-31T09:39:35.085Z,61.33
2019-01-31T09:42:12.650Z,46.30
2019-01-31T09:44:50.052Z,51.77
2019-01-31T09:47:36.312Z,51.20
2019-01-31T09:50:14.057Z,49.50
2019-01-31T09:52:54.568Z,57.60
2019-01-31T09:55:47.247Z,54.80
2019-01-31T09:58:28.306Z,43.70
2019-01-31T10:01:24.428Z,41.83
2019-01-31T10:04:01.780Z,62.23
2019-01-31T10:06:38.927Z,44.50
2019-01-31T10:09:28.453Z,51.50
2019-01-31T10:12:15.079Z,46.50
2019-01-31T10:14:49.459Z,46.10
2019-01-31T10:17:54.233Z,61.07
2019-01-31T10:20:31.857Z,50.43
2019-01-31T10:23:18.497Z,49.60
2019-01-31T10:26:01.769Z,46.00
2019-01-31T10:28:35.804Z,51.90
2019-01-31T10:31:10.347Z,44.53
2019-01-31T10:33:47.465Z,44.13
2019-01-31T10:36:26.394Z,44.60
2019-01-31T10:39:07.154Z,45.47
2019-01-31T10:41:50.829Z,58.48
2019-01-31T10:44:37.508Z,56.00
2019-01-31T10:47:24.403Z,50.60
2019-01-31T10:50:18.006Z,47.80
2019-01-31T10:52:55.558Z,52.80
2019-01-31T10:55:51.194Z,55.30
2019-01-31T10:58:37.984Z,48.53
2019-01-31T11:01:26.311Z,50.07
2019-01-31T11:04:29.993Z,52.33
2019-01-31T11:07:01.613Z,44.63
2019-01-31T11:09:45.490Z,42.93
2019-01-31T11:12:38.217Z,46.63
2019-01-31T11:15:21.629Z,52.23
2019-01-31T11:17:56.198Z,44.43
2019-01-31T11:20:44.060Z,53.43
2019-01-31T11:23:18.385Z,60.70
2019-01-31T11:25:52.969Z,81.57
2019-01-31T11:28:45.888Z,49.50
2019-01-31T11:31:17.440Z,42.97
2019-01-31T11:33:49.001Z,66.80
2019-01-31T11:36:26.565Z,50.33
2019-01-31T11:39:08.769Z,50.20
2019-01-31T11:41:55.324Z,54.53
2019-01-31T11:44:54.279Z,41.42
2019-01-31T11:47:37.960Z,39.70
2019-01-31T11:50:21.417Z,50.73
2019-01-31T11:53:05.128Z,51.10
2019-01-31T11:55:39.648Z,46.30
2019-01-31T11:58:29.389Z,43.92
2019-01-31T12:00:57.656Z,59.23
2019-01-31T12:03:26.148Z,44.77
2019-01-31T12:05:54.604Z,51.18
2019-01-31T12:08:22.908Z,50.00
2019-01-31T12:10:51.367Z,52.23
2019-01-31T12:13:23.520Z,48.73
2019-01-31T12:15:49.714Z,51.73
2019-01-31T12:18:18.133Z,47.10
2019-01-31T12:20:46.587Z,43.47
2019-01-31T12:23:14.950Z,60.40
2019-01-31T12:25:44.883Z,39.33
2019-01-31T12:28:16.640Z,49.43
2019-01-31T12:30:45.091Z,52.73
2019-01-31T12:33:13.542Z,50.00
2019-01-31T12:35:41.846Z,45.17
2019-01-31T12:38:10.439Z,49.27
2019-01-31T12:40:38.825Z,49.63
2019-01-31T12:43:07.165Z,55.60
2019-01-31T12:45:36.564Z,51.43
2019-01-31T12:48:07.228Z,62.60
2019-01-31T12:50:35.263Z,57.53
2019-01-31T12:53:03.763Z,43.63
2019-01-31T12:55:32.105Z,57.27
2019-01-31T12:58:00.509Z,52.30
2019-01-31T13:00:28.849Z,42.90
2019-01-31T13:02:57.275Z,51.93
2019-01-31T13:05:25.617Z,56.67
2019-01-31T13:07:53.972Z,46.47
2019-01-31T13:10:22.402Z,53.20
2019-01-31T13:12:50.854Z,43.33
2019-01-31T13:15:19.292Z,53.60
2019-01-31T13:17:47.685Z,55.27
2019-01-31T13:20:21.055Z,47.73
2019-01-31T13:22:51.553Z,47.60
2019-01-31T13:25:19.925Z,39.50
2019-01-31T13:27:48.341Z,38.50
2019-01-31T13:30:18.978Z,50.03
2019-01-31T13:32:47.319Z,43.57
2019-01-31T13:35:16.533Z,41.50
2019-01-31T13:37:44.870Z,48.70
2019-01-31T13:40:18.072Z,41.67
2019-01-31T13:42:46.723Z,43.97
2019-01-31T13:45:17.892Z,50.03
2019-01-31T13:47:46.313Z,42.50
2019-01-31T13:50:16.537Z,47.83
2019-01-31T13:52:44.878Z,53.10
2019-01-31T13:55:18.804Z,62.67
2019-01-31T13:57:48.068Z,69.50
2019-01-31T14:00:25.181Z,64.83
2019-01-31T14:02:56.853Z,45.90
2019-01-31T14:05:25.637Z,46.10
2019-01-31T14:07:54.076Z,50.90
2019-01-31T14:10:24.515Z,33.67
2019-01-31T14:12:54.496Z,46.80
2019-01-31T14:15:33.114Z,34.60
2019-01-31T14:17:55.507Z,40.90
2019-01-31T14:20:25.801Z,36.37
2019-01-31T14:22:58.829Z,38.97
2019-01-31T14:25:27.229Z,41.83
2019-01-31T14:27:55.628Z,46.20
2019-01-31T14:30:29.855Z,38.47
2019-01-31T14:32:58.771Z,38.33
2019-01-31T14:35:29.875Z,35.20
2019-01-31T14:37:57.815Z,38.07
2019-01-31T14:40:28.908Z,30.77
2019-01-31T14:42:57.374Z,33.67
2019-01-31T14:45:25.991Z,38.43
2019-01-31T14:47:55.848Z,68.60
2019-01-31T14:50:36.741Z,39.33
2019-01-31T14:53:05.949Z,35.40
2019-01-31T14:55:36.040Z,39.00
2019-01-31T14:58:06.137Z,30.87
2019-01-31T15:00:36.288Z,31.87
2019-01-31T15:03:05.113Z,23.43
2019-01-31T15:05:37.139Z,20.40
2019-01-31T15:08:05.190Z,27.37
2019-01-31T15:10:33.611Z,24.23
2019-01-31T15:13:01.886Z,26.83
2019-01-31T15:15:30.153Z,24.77
2019-01-31T15:17:58.556Z,28.27
2019-01-31T15:20:38.094Z,23.53
2019-01-31T15:23:04.982Z,22.60
2019-01-31T15:25:33.286Z,20.53
2019-01-31T15:28:08.856Z,18.23
2019-01-31T15:30:37.747Z,26.47
2019-01-31T15:33:08.362Z,13.97
2019-01-31T15:35:36.708Z,19.37
2019-01-31T15:38:05.037Z,13.47
2019-01-31T15:40:36.655Z,15.43
2019-01-31T15:43:05.235Z,16.00
2019-01-31T15:45:33.603Z,16.43
2019-01-31T15:48:01.956Z,21.30
2019-01-31T15:50:30.382Z,15.73
2019-01-31T15:52:58.812Z,12.20
2019-01-31T15:55:27.864Z,12.97
2019-01-31T15:57:58.368Z,17.60
2019-01-31T16:00:30.643Z,12.57
2019-01-31T16:02:59.077Z,11.47
2019-01-31T16:05:27.600Z,13.17
2019-01-31T16:07:57.192Z,12.13
2019-01-31T16:10:27.113Z,13.20
2019-01-31T16:12:55.535Z,10.90
2019-01-31T16:15:23.975Z,16.13
2019-01-31T16:17:52.708Z,16.77
2019-01-31T16:20:21.280Z,16.20
2019-01-31T16:22:49.536Z,14.03
2019-01-31T16:25:17.943Z,14.27
2019-01-31T16:27:46.326Z,22.40
2019-01-31T16:30:19.117Z,18.60
2019-01-31T16:32:47.549Z,23.23
2019-01-31T16:35:18.288Z,19.83
2019-01-31T16:37:47.184Z,20.33
2019-01-31T16:40:18.743Z,16.87
2019-01-31T16:42:47.036Z,16.97
2019-01-31T16:45:16.387Z,19.43
2019-01-31T16:47:45.030Z,16.20
2019-01-31T16:50:21.305Z,18.97
2019-01-31T16:52:49.789Z,16.90
2019-01-31T16:55:20.801Z,18.73
2019-01-31T16:57:49.413Z,15.10
2019-01-31T17:00:22.003Z,14.10
2019-01-31T17:02:50.309Z,24.60
2019-01-31T17:05:20.698Z,19.43
2019-01-31T17:07:50.882Z,27.93
2019-01-31T17:10:19.478Z,16.20
2019-01-31T17:12:47.758Z,14.03
2019-01-31T17:15:18.475Z,15.70
2019-01-31T17:17:46.940Z,16.10
2019-01-31T17:20:23.953Z,16.43
2019-01-31T17:22:52.245Z,10.27
2019-01-31T17:25:20.517Z,13.43
2019-01-31T17:27:48.878Z,12.77
2019-01-31T17:30:19.474Z,13.63
2019-01-31T17:32:47.729Z,11.03
2019-01-31T17:35:16.046Z,12.83
2019-01-31T17:37:44.330Z,13.70
2019-01-31T17:40:18.587Z,10.57
2019-01-31T17:42:46.893Z,14.40
2019-01-31T17:45:17.290Z,10.50
2019-01-31T17:47:45.563Z,15.10
2019-01-31T17:50:14.998Z,12.17
2019-01-31T17:52:43.450Z,16.60
2019-01-31T17:55:14.893Z,10.97
2019-01-31T17:57:43.139Z,12.80
2019-01-31T18:00:25.369Z,23.43
2019-01-31T18:02:53.623Z,14.17
2019-01-31T18:05:21.879Z,16.63
2019-01-31T18:07:50.159Z,12.90
2019-01-31T18:10:22.705Z,14.40
2019-01-31T18:12:51.081Z,16.57
2019-01-31T18:15:19.384Z,15.87
2019-01-31T18:17:47.687Z,15.93
2019-01-31T18:20:23.234Z,14.83
2019-01-31T18:22:51.504Z,12.20
2019-01-31T18:25:19.814Z,15.50
2019-01-31T18:27:48.108Z,18.13
2019-01-31T18:30:19.521Z,15.57
2019-01-31T18:32:47.791Z,15.67
2019-01-31T18:35:16.049Z,18.73
2019-01-31T18:37:44.359Z,14.00
2019-01-31T18:40:15.648Z,12.13
2019-01-31T18:42:43.952Z,19.93
2019-01-31T18:45:18.297Z,13.57
2019-01-31T18:47:46.577Z,18.90
2019-01-31T18:50:17.967Z,19.93
2019-01-31T18:52:46.256Z,14.30
2019-01-31T18:55:14.507Z,12.73
2019-01-31T18:57:42.833Z,13.10
2019-01-31T19:00:25.552Z,14.87
2019-01-31T19:02:53.807Z,18.37
2019-01-31T19:05:22.184Z,16.43
2019-01-31T19:07:50.569Z,21.30
2019-01-31T19:10:18.948Z,17.50
2019-01-31T19:12:47.202Z,15.70
2019-01-31T19:15:18.787Z,14.80
2019-01-31T19:17:47.126Z,25.93
2019-01-31T19:20:23.041Z,18.03
2019-01-31T19:22:52.643Z,20.40
2019-01-31T19:25:20.902Z,15.97
2019-01-31T19:27:49.191Z,16.07
2019-01-31T19:30:20.515Z,18.57
2019-01-31T19:32:48.895Z,16.43
2019-01-31T19:35:17.177Z,22.87
2019-01-31T19:37:45.435Z,27.57
2019-01-31T19:40:19.198Z,23.23
2019-01-31T19:42:47.730Z,23.83
2019-01-31T19:45:21.916Z,16.60
2019-01-31T19:47:50.501Z,19.20
2019-01-31T19:50:18.980Z,26.20
2019-01-31T19:52:47.333Z,27.80
2019-01-31T19:55:15.582Z,19.43
2019-01-31T19:57:43.983Z,34.47
2019-01-31T20:00:18.977Z,34.63
2019-01-31T20:02:47.331Z,20.23
2019-01-31T20:05:15.970Z,17.80
2019-01-31T20:07:44.666Z,15.80
2019-01-31T20:10:19.376Z,16.10
2019-01-31T20:12:47.838Z,20.77
2019-01-31T20:15:16.701Z,16.43
2019-01-31T20:17:47.659Z,15.17
2019-01-31T20:20:20.985Z,17.07
2019-01-31T20:22:50.681Z,15.03
2019-01-31T20:25:19.173Z,18.87
2019-01-31T20:27:47.538Z,19.13
2019-01-31T20:30:18.793Z,16.97
2019-01-31T20:32:47.177Z,19.97
2019-01-31T20:35:17.369Z,16.33
2019-01-31T20:37:45.668Z,15.00
2019-01-31T20:40:20.159Z,17.53
2019-01-31T20:42:48.538Z,15.97
2019-01-31T20:45:16.885Z,24.23
2019-01-31T20:47:45.161Z,17.20
2019-01-31T20:50:22.144Z,17.73
2019-01-31T20:52:50.451Z,16.43
2019-01-31T20:55:18.854Z,16.90
2019-01-31T20:57:47.116Z,18.20
2019-01-31T21:00:28.322Z,19.43
2019-01-31T21:02:56.648Z,15.90
2019-01-31T21:05:26.161Z,12.80
2019-01-31T21:07:54.667Z,13.00
2019-01-31T21:10:22.926Z,13.33
2019-01-31T21:12:51.819Z,22.67
2019-01-31T21:15:23.362Z,11.93
2019-01-31T21:17:51.637Z,12.77
2019-01-31T21:20:26.362Z,12.90
2019-01-31T21:22:55.074Z,10.97
2019-01-31T21:25:23.387Z,12.63
2019-01-31T21:27:51.703Z,12.07
2019-01-31T21:30:23.023Z,12.90
2019-01-31T21:32:51.401Z,12.63
2019-01-31T21:35:20.006Z,8.87
2019-01-31T21:37:48.378Z,15.00
2019-01-31T21:40:18.824Z,16.10
2019-01-31T21:42:47.071Z,12.20
2019-01-31T21:45:17.559Z,11.57
2019-01-31T21:47:45.918Z,23.63
2019-01-31T21:50:16.750Z,9.03
2019-01-31T21:52:45.151Z,12.57
2019-01-31T21:55:14.584Z,6.30
2019-01-31T21:57:42.859Z,7.37
2019-01-31T22:00:17.661Z,9.97
2019-01-31T22:02:45.893Z,8.30
2019-01-31T22:05:15.894Z,7.33
2019-01-31T22:07:44.224Z,9.40
2019-01-31T22:10:14.687Z,10.77
2019-01-31T22:12:43.031Z,11.13
2019-01-31T22:15:14.504Z,6.20
2019-01-31T22:17:42.761Z,6.40
2019-01-31T22:20:11.995Z,9.00
2019-01-31T22:22:40.272Z,8.43
2019-01-31T22:25:11.332Z,11.43
2019-01-31T22:27:39.587Z,5.37
2019-01-31T22:30:11.155Z,7.93
2019-01-31T22:32:39.436Z,4.77
2019-01-31T22:35:08.821Z,10.13
2019-01-31T22:37:37.141Z,4.20
2019-01-31T22:40:09.010Z,3.57
2019-01-31T22:42:37.255Z,11.50
2019-01-31T22:45:08.819Z,3.27
2019-01-31T22:47:37.123Z,4.50
2019-01-31T22:50:08.489Z,5.17
2019-01-31T22:52:36.738Z,4.77
2019-01-31T22:55:07.598Z,8.13
2019-01-31T22:57:35.890Z,9.83
2019-01-31T23:00:11.945Z,6.70
2019-01-31T23:02:40.239Z,3.90
2019-01-31T23:05:08.472Z,6.17
2019-01-31T23:07:36.750Z,5.30
2019-01-31T23:10:08.616Z,5.33
2019-01-31T23:12:36.905Z,4.47
2019-01-31T23:15:10.516Z,4.47
2019-01-31T23:17:38.752Z,7.93
2019-01-31T23:20:14.769Z,4.23
2019-01-31T23:22:43.061Z,5.00
2019-01-31T23:25:11.346Z,5.60
2019-01-31T23:27:39.632Z,5.23
2019-01-31T23:30:13.869Z,4.23
2019-01-31T23:32:42.118Z,6.03
2019-01-31T23:35:10.410Z,4.70
2019-01-31T23:37:38.701Z,5.43
2019-01-31T23:40:10.075Z,7.77
2019-01-31T23:42:38.349Z,6.00
2019-01-31T23:45:15.205Z,6.53
2019-01-31T23:47:48.913Z,4.87
2019-01-31T23:50:13.519Z,9.17
2019-01-31T23:52:42.135Z,6.60
2019-01-31T23:55:12.895Z,7.13
2019-01-31T23:57:41.212Z,4.20
